createdAt,value
2022-11-10T00:02:44.823Z,98342.72
2022-11-10T00:05:48.952Z,98495.75
2022-11-10T00:08:53.432Z,98517.41
2022-11-10T00:11:57.962Z,98488.25
2022-11-10T00:15:20.895Z,98357.31
2022-11-10T00:18:24.949Z,98535.50
2022-11-10T00:21:28.964Z,98517.84
2022-11-10T00:24:33.225Z,98368.06
2022-11-10T00:27:37.984Z,98333.44
2022-11-10T00:30:46.702Z,98465.84
2022-11-10T00:33:51.616Z,98545.47
2022-11-10T00:36:55.842Z,98537.75
2022-11-10T00:40:00.074Z,98493.47
2022-11-10T00:43:04.429Z,98456.41
2022-11-10T00:46:08.745Z,98513.78
2022-11-10T00:49:13.114Z,98457.44
2022-11-10T00:52:17.516Z,98441.72
2022-11-10T00:55:21.752Z,98349.19
2022-11-10T00:58:26.203Z,98541.31
2022-11-10T01:01:30.601Z,98334.47
2022-11-10T01:04:34.674Z,98415.00
2022-11-10T01:07:39.517Z,98526.28
2022-11-10T01:10:43.803Z,98563.13
2022-11-10T01:13:50.467Z,98433.97
2022-11-10T01:16:54.815Z,98341.03
2022-11-10T01:19:59.551Z,98476.09
2022-11-10T01:23:03.792Z,98521.13
2022-11-10T01:26:08.864Z,98479.19
2022-11-10T01:29:13.278Z,98419.63
2022-11-10T01:32:17.487Z,98331.78
2022-11-10T01:35:22.216Z,98526.72
2022-11-10T01:38:31.819Z,98441.06
2022-11-10T01:41:36.276Z,98343.84
2022-11-10T01:44:42.050Z,98307.78
2022-11-10T01:47:46.683Z,98540.28
2022-11-10T01:50:51.175Z,98450.34
2022-11-10T01:54:09.583Z,98428.56
2022-11-10T01:57:15.997Z,98467.09
2022-11-10T02:00:21.134Z,98545.28
2022-11-10T02:03:37.119Z,98519.97
2022-11-10T02:06:43.594Z,98340.50
2022-11-10T02:09:48.084Z,98534.63
2022-11-10T02:12:52.705Z,98547.75
2022-11-10T02:15:57.267Z,98420.56
2022-11-10T02:19:23.391Z,98555.88
2022-11-10T02:22:27.760Z,98397.22
2022-11-10T02:25:32.962Z,98361.41
2022-11-10T02:28:38.224Z,98555.28
2022-11-10T02:31:42.669Z,98365.84
2022-11-10T02:34:46.860Z,98523.50
2022-11-10T02:37:51.141Z,98393.88
2022-11-10T02:40:55.484Z,98563.50
2022-11-10T02:44:00.462Z,98554.31
2022-11-10T02:47:05.210Z,98351.22
2022-11-10T02:50:09.524Z,98358.41
2022-11-10T02:53:13.974Z,98538.75
2022-11-10T02:56:18.890Z,98510.41
2022-11-10T02:59:23.578Z,98477.75
2022-11-10T03:02:32.056Z,98509.59
2022-11-10T03:05:36.762Z,98523.31
2022-11-10T03:08:41.020Z,98484.44
2022-11-10T03:11:45.244Z,98550.28
2022-11-10T03:14:49.972Z,98554.69
2022-11-10T03:17:55.044Z,98558.72
2022-11-10T03:20:59.753Z,98561.31
2022-11-10T03:24:04.299Z,98434.75
2022-11-10T03:27:08.754Z,98466.06
2022-11-10T03:30:13.124Z,98357.38
2022-11-10T03:33:18.155Z,98506.41
2022-11-10T03:36:22.534Z,98545.38
2022-11-10T03:39:26.962Z,98550.38
2022-11-10T03:42:31.333Z,98367.03
2022-11-10T03:45:35.743Z,98551.84
2022-11-10T03:48:39.880Z,98385.94
2022-11-10T03:51:44.119Z,98531.28
2022-11-10T03:54:48.553Z,98531.63
2022-11-10T03:57:52.696Z,98484.28
2022-11-10T04:00:57.724Z,98394.16
2022-11-10T04:04:01.871Z,98532.78
2022-11-10T04:07:24.398Z,98573.78
2022-11-10T04:10:28.964Z,98550.16
2022-11-10T04:13:51.815Z,98497.81
2022-11-10T04:16:56.448Z,98546.16
2022-11-10T04:20:02.491Z,98495.31
2022-11-10T04:23:25.693Z,98548.41
2022-11-10T04:26:30.198Z,98313.00
2022-11-10T04:29:34.824Z,98387.41
2022-11-10T04:32:38.913Z,98391.50
2022-11-10T04:35:43.379Z,98537.38
2022-11-10T04:38:49.114Z,98547.69
2022-11-10T04:41:54.447Z,98546.91
2022-11-10T04:45:01.814Z,98536.63
2022-11-10T04:48:06.062Z,98444.50
2022-11-10T04:51:11.681Z,98497.19
2022-11-10T04:54:16.429Z,98351.25
2022-11-10T04:57:20.916Z,98544.38
2022-11-10T05:00:25.811Z,98346.53
2022-11-10T05:03:30.620Z,98530.66
2022-11-10T05:06:34.750Z,98406.56
2022-11-10T05:09:39.405Z,98578.63
2022-11-10T05:12:43.468Z,98555.06
2022-11-10T05:15:47.927Z,98557.28
2022-11-10T05:18:54.249Z,98523.00
2022-11-10T05:21:58.597Z,98562.44
2022-11-10T05:25:03.102Z,98563.75
2022-11-10T05:28:09.073Z,98566.50
2022-11-10T05:31:13.612Z,98424.56
2022-11-10T05:34:18.548Z,98543.22
2022-11-10T05:37:23.027Z,98577.53
2022-11-10T05:40:27.525Z,98559.44
2022-11-10T05:43:31.688Z,98592.47
2022-11-10T05:46:36.027Z,98433.06
2022-11-10T05:49:40.932Z,98599.84
2022-11-10T05:52:50.360Z,98601.13
2022-11-10T05:55:54.753Z,98423.78
2022-11-10T05:58:58.986Z,98604.47
2022-11-10T06:02:03.386Z,98614.38
2022-11-10T06:05:07.882Z,98614.38
2022-11-10T06:08:12.807Z,98611.00
2022-11-10T06:11:17.491Z,98545.06
2022-11-10T06:14:22.155Z,98628.38
2022-11-10T06:17:26.734Z,98636.66
2022-11-10T06:20:31.114Z,98630.19
2022-11-10T06:23:35.287Z,98443.28
2022-11-10T06:26:39.912Z,98490.44
2022-11-10T06:29:44.416Z,98634.59
2022-11-10T06:32:49.694Z,98639.44
2022-11-10T06:35:54.247Z,98630.19
2022-11-10T06:38:58.657Z,98654.91
2022-11-10T06:42:03.051Z,98465.00
2022-11-10T06:45:07.979Z,98638.16
2022-11-10T06:48:16.454Z,98564.22
2022-11-10T06:51:21.743Z,98646.09
2022-11-10T06:54:25.928Z,98654.38
2022-11-10T06:57:30.280Z,98651.03
2022-11-10T07:00:35.563Z,98569.88
2022-11-10T07:03:58.535Z,98459.50
2022-11-10T07:07:11.144Z,98650.66
2022-11-10T07:10:16.186Z,98679.22
2022-11-10T07:13:23.850Z,98600.09
2022-11-10T07:16:30.393Z,98643.13
2022-11-10T07:19:35.055Z,98481.59
2022-11-10T07:22:39.766Z,98662.84
2022-11-10T07:25:45.456Z,98675.22
2022-11-10T07:28:53.831Z,98684.44
2022-11-10T07:31:58.898Z,98657.34
2022-11-10T07:35:03.281Z,98675.94
2022-11-10T07:38:17.013Z,98649.59
2022-11-10T07:41:22.262Z,98688.50
2022-11-10T07:44:27.913Z,98498.22
2022-11-10T07:47:32.545Z,98503.72
2022-11-10T07:50:37.219Z,98688.13
2022-11-10T07:53:42.167Z,98696.25
2022-11-10T07:56:47.707Z,98689.81
2022-11-10T07:59:56.997Z,98688.72
2022-11-10T08:03:10.397Z,98684.28
2022-11-10T08:06:15.615Z,98690.00
2022-11-10T08:09:20.033Z,98694.13
2022-11-10T08:12:27.521Z,98677.31
2022-11-10T08:15:34.627Z,98621.06
2022-11-10T08:18:39.048Z,98544.75
2022-11-10T08:21:43.619Z,98704.06
2022-11-10T08:24:48.558Z,98680.78
2022-11-10T08:28:08.124Z,98722.69
2022-11-10T08:31:12.200Z,98518.81
2022-11-10T08:34:16.774Z,98590.13
2022-11-10T08:37:21.591Z,98672.75
2022-11-10T08:40:29.090Z,98569.50
2022-11-10T08:43:33.699Z,98759.03
2022-11-10T08:46:38.275Z,98733.22
2022-11-10T08:49:42.297Z,98585.50
2022-11-10T08:52:46.798Z,98741.16
2022-11-10T08:55:53.386Z,98744.28
2022-11-10T08:58:57.577Z,98750.22
2022-11-10T09:02:02.170Z,98735.44
2022-11-10T09:05:07.921Z,98738.03
2022-11-10T09:08:13.442Z,98753.53
2022-11-10T09:11:18.313Z,98719.97
2022-11-10T09:14:23.560Z,98748.00
2022-11-10T09:17:28.902Z,98755.38
2022-11-10T09:20:35.845Z,98767.91
2022-11-10T09:23:41.356Z,98750.56
2022-11-10T09:26:47.690Z,98722.38
2022-11-10T09:29:52.111Z,98576.94
2022-11-10T09:32:58.000Z,98760.50
2022-11-10T09:36:02.915Z,98572.50
2022-11-10T09:39:07.998Z,98574.16
2022-11-10T09:42:41.939Z,98592.78
2022-11-10T09:45:48.648Z,98795.56
2022-11-10T09:49:36.071Z,98759.22
2022-11-10T09:52:41.459Z,98774.50
2022-11-10T09:55:51.005Z,98594.63
2022-11-10T09:58:55.828Z,98601.28
2022-11-10T10:02:15.682Z,98774.50
2022-11-10T10:05:47.929Z,98782.22
2022-11-10T10:08:55.480Z,98785.53
2022-11-10T10:12:25.645Z,98804.34
2022-11-10T10:15:45.259Z,98660.97
2022-11-10T10:19:11.550Z,98701.66
2022-11-10T10:22:32.971Z,98773.59
2022-11-10T10:25:39.626Z,98643.97
2022-11-10T10:28:46.398Z,98614.13
2022-11-10T10:31:52.549Z,98734.09
2022-11-10T10:34:57.813Z,98644.63
2022-11-10T10:38:04.755Z,98769.03
2022-11-10T10:41:29.992Z,98612.91
2022-11-10T10:44:34.538Z,98783.13
2022-11-10T10:47:39.785Z,98740.13
2022-11-10T10:50:46.440Z,98625.25
2022-11-10T10:53:50.932Z,98661.19
2022-11-10T10:57:23.253Z,98614.13
2022-11-10T11:00:29.414Z,98777.25
2022-11-10T11:03:42.228Z,98730.25
2022-11-10T11:07:19.058Z,98705.53
2022-11-10T11:10:33.195Z,98610.25
2022-11-10T11:13:38.417Z,98599.16
2022-11-10T11:17:00.290Z,98725.56
2022-11-10T11:20:13.274Z,98636.72
2022-11-10T11:23:29.936Z,98768.06
2022-11-10T11:26:47.802Z,98775.72
2022-11-10T11:30:06.494Z,98781.75
2022-11-10T11:33:36.836Z,98778.16
2022-11-10T11:36:44.524Z,98779.41
2022-11-10T11:40:15.439Z,98767.59
2022-11-10T11:43:35.951Z,98766.22
2022-11-10T11:46:49.695Z,98766.53
2022-11-10T11:50:24.346Z,98789.88
2022-11-10T11:54:05.571Z,98780.84
2022-11-10T11:57:39.692Z,98798.19
2022-11-10T12:00:50.906Z,98770.69
2022-11-10T12:04:10.792Z,98797.66
2022-11-10T12:07:24.358Z,98758.63
2022-11-10T12:10:52.609Z,98788.75
2022-11-10T12:16:58.502Z,98694.63
2022-11-10T12:20:28.067Z,98792.09
2022-11-10T12:24:06.008Z,98791.94
2022-11-10T12:27:28.879Z,98801.03
2022-11-10T12:30:36.686Z,98799.53
2022-11-10T12:33:50.874Z,98705.41
2022-11-10T12:36:58.228Z,98518.78
2022-11-10T12:40:12.831Z,98809.53
2022-11-10T12:43:25.320Z,98811.56
2022-11-10T12:46:30.135Z,98804.69
2022-11-10T12:49:39.041Z,98806.75
2022-11-10T12:53:15.948Z,98816.56
2022-11-10T12:56:31.906Z,98818.63
2022-11-10T12:59:39.813Z,98826.22
2022-11-10T13:02:46.759Z,98790.47
2022-11-10T13:05:57.742Z,98773.34
2022-11-10T13:09:03.035Z,98817.84
2022-11-10T13:12:10.232Z,98878.59
2022-11-10T13:15:39.640Z,98866.00
2022-11-10T13:18:52.752Z,98868.59
2022-11-10T13:22:00.403Z,98887.75
2022-11-10T13:25:49.529Z,98869.84
2022-11-10T13:29:02.845Z,98846.09
2022-11-10T13:32:07.557Z,98876.09
2022-11-10T13:35:30.214Z,98891.88
2022-11-10T13:38:37.040Z,98896.38
2022-11-10T13:42:06.258Z,98856.28
2022-11-10T13:45:37.078Z,98902.75
2022-11-10T13:48:47.230Z,98900.53
2022-11-10T13:52:10.979Z,98903.16
2022-11-10T13:55:27.308Z,98906.50
2022-11-10T13:58:34.581Z,98883.75
2022-11-10T14:01:41.137Z,98910.59
2022-11-10T14:04:46.585Z,98860.94
2022-11-10T14:07:52.626Z,98911.50
2022-11-10T14:11:03.764Z,98888.25
2022-11-10T14:14:24.571Z,98752.44
2022-11-10T14:17:34.002Z,98775.09
2022-11-10T14:20:44.571Z,98924.06
2022-11-10T14:23:54.055Z,98740.38
2022-11-10T14:27:05.110Z,98873.38
2022-11-10T14:30:21.511Z,98936.22
2022-11-10T14:33:27.533Z,98938.66
2022-11-10T14:36:32.660Z,98912.75
2022-11-10T14:39:37.271Z,98946.53
2022-11-10T14:42:41.792Z,98947.63
2022-11-10T14:45:51.923Z,98954.38
2022-11-10T14:48:58.730Z,98887.28
2022-11-10T14:52:03.569Z,98827.72
2022-11-10T14:55:20.473Z,98940.72
2022-11-10T14:58:31.148Z,98976.72
2022-11-10T15:01:39.054Z,98827.28
2022-11-10T15:04:46.226Z,98893.09
2022-11-10T15:07:56.551Z,98975.75
2022-11-10T15:11:01.076Z,98896.13
2022-11-10T15:14:05.770Z,98996.50
2022-11-10T15:17:14.627Z,98992.22
2022-11-10T15:20:29.605Z,98883.63
2022-11-10T15:23:37.799Z,99003.84
2022-11-10T15:26:42.815Z,98867.06
2022-11-10T15:29:48.010Z,98967.66
2022-11-10T15:32:54.820Z,98955.22
2022-11-10T15:36:25.030Z,98836.06
2022-11-10T15:39:30.397Z,98985.63
2022-11-10T15:42:35.133Z,98854.16
2022-11-10T15:45:40.148Z,98840.84
2022-11-10T15:48:48.067Z,99016.31
2022-11-10T15:51:57.430Z,98880.34
2022-11-10T15:55:02.549Z,98939.59
2022-11-10T15:58:19.430Z,99047.59
2022-11-10T16:01:24.976Z,98887.41
2022-11-10T16:04:29.627Z,99052.22
2022-11-10T16:07:34.782Z,98884.84
2022-11-10T16:10:41.511Z,99022.59
2022-11-10T16:13:46.836Z,99054.31
2022-11-10T16:16:51.465Z,98931.38
2022-11-10T16:19:55.740Z,98929.34
2022-11-10T16:23:00.806Z,98962.00
2022-11-10T16:26:07.559Z,98842.78
2022-11-10T16:29:15.620Z,99078.00
2022-11-10T16:32:20.213Z,98915.88
2022-11-10T16:35:25.971Z,99115.34
2022-11-10T16:38:32.403Z,99090.59
2022-11-10T16:41:37.457Z,99100.03
2022-11-10T16:44:42.778Z,98921.75
2022-11-10T16:47:50.571Z,99111.66
2022-11-10T16:50:58.072Z,99108.91
2022-11-10T16:54:02.565Z,99140.88
2022-11-10T16:57:12.734Z,98981.22
2022-11-10T17:00:18.214Z,99152.69
2022-11-10T17:03:35.594Z,99124.97
2022-11-10T17:06:40.614Z,99067.34
2022-11-10T17:09:45.271Z,99112.03
2022-11-10T17:12:49.981Z,99129.06
2022-11-10T17:16:05.106Z,98976.78
2022-11-10T17:19:17.593Z,99139.38
2022-11-10T17:22:23.819Z,99173.59
2022-11-10T17:25:32.500Z,99008.75
2022-11-10T17:28:37.290Z,99154.53
2022-11-10T17:31:42.044Z,99002.28
2022-11-10T17:34:46.619Z,99154.16
2022-11-10T17:37:55.063Z,99162.66
2022-11-10T17:40:59.821Z,99166.00
2022-11-10T17:44:04.713Z,99131.28
2022-11-10T17:47:09.397Z,99180.06
2022-11-10T17:50:15.687Z,99032.19
2022-11-10T17:53:23.890Z,99139.59
2022-11-10T17:56:29.846Z,99181.56
2022-11-10T17:59:34.636Z,99013.34
2022-11-10T18:02:39.047Z,99189.50
2022-11-10T18:05:44.413Z,99206.88
2022-11-10T18:08:50.245Z,99195.44
2022-11-10T18:11:56.093Z,99198.19
2022-11-10T18:15:01.147Z,99196.16
2022-11-10T18:18:06.842Z,99209.09
2022-11-10T18:21:12.113Z,99202.66
2022-11-10T18:24:16.328Z,99207.44
2022-11-10T18:27:21.167Z,99126.75
2022-11-10T18:30:25.566Z,99218.16
2022-11-10T18:33:30.079Z,99200.97
2022-11-10T18:36:34.325Z,99044.28
2022-11-10T18:39:38.838Z,99232.94
2022-11-10T18:42:43.109Z,99078.41
2022-11-10T18:45:51.797Z,99238.06
2022-11-10T18:48:56.278Z,99077.00
2022-11-10T18:52:00.801Z,99064.88
2022-11-10T18:55:06.396Z,99210.88
2022-11-10T18:58:11.029Z,99175.84
2022-11-10T19:01:16.754Z,99261.41
2022-11-10T19:04:21.071Z,99173.00
2022-11-10T19:07:25.545Z,99274.69
2022-11-10T19:10:29.869Z,99120.28
2022-11-10T19:13:34.426Z,99170.22
2022-11-10T19:16:39.883Z,99280.41
2022-11-10T19:19:46.239Z,99282.41
2022-11-10T19:22:51.157Z,99293.69
2022-11-10T19:26:25.417Z,99302.34
2022-11-10T19:29:31.643Z,99309.75
2022-11-10T19:32:37.720Z,99287.28
2022-11-10T19:35:43.500Z,99177.81
2022-11-10T19:38:48.426Z,99305.28
2022-11-10T19:41:54.013Z,99320.84
2022-11-10T19:44:58.589Z,99322.69
2022-11-10T19:48:08.348Z,99321.19
2022-11-10T19:51:17.801Z,99326.03
2022-11-10T19:54:23.406Z,99293.44
2022-11-10T19:57:28.981Z,99326.41
2022-11-10T20:00:34.271Z,99314.75
2022-11-10T20:03:40.247Z,99298.66
2022-11-10T20:06:45.830Z,99354.19
2022-11-10T20:09:51.595Z,99338.28
2022-11-10T20:12:56.899Z,99305.84
2022-11-10T20:16:07.309Z,99332.53
2022-11-10T20:19:13.159Z,99336.03
2022-11-10T20:22:19.067Z,99306.56
2022-11-10T20:25:24.321Z,99335.59
2022-11-10T20:28:30.553Z,99351.84
2022-11-10T20:31:37.027Z,99332.91
2022-11-10T20:34:41.979Z,99336.06
2022-11-10T20:37:47.131Z,99354.78
2022-11-10T20:41:05.783Z,99356.06
2022-11-10T20:44:11.027Z,99360.13
2022-11-10T20:47:15.936Z,99373.81
2022-11-10T20:50:24.331Z,99354.41
2022-11-10T20:53:29.719Z,99301.38
2022-11-10T20:56:34.085Z,99368.13
2022-11-10T20:59:38.621Z,99355.94
2022-11-10T21:02:43.472Z,99352.06
2022-11-10T21:05:56.193Z,99371.69
2022-11-10T21:09:03.416Z,99360.97
2022-11-10T21:12:31.399Z,99203.81
2022-11-10T21:15:40.476Z,99189.09
2022-11-10T21:18:44.752Z,99326.69
2022-11-10T21:21:51.144Z,99359.09
2022-11-10T21:24:58.391Z,99358.56
2022-11-10T21:28:05.571Z,99192.88
2022-11-10T21:31:13.364Z,99351.16
2022-11-10T21:34:21.036Z,99375.63
2022-11-10T21:37:26.081Z,99366.34
2022-11-10T21:40:32.236Z,99373.75
2022-11-10T21:43:40.303Z,99399.63
2022-11-10T21:46:46.641Z,99352.56
2022-11-10T21:49:51.691Z,99365.88
2022-11-10T21:52:56.983Z,99231.28
2022-11-10T21:56:07.984Z,99322.41
2022-11-10T21:59:14.578Z,99395.94
2022-11-10T22:02:19.850Z,99365.59
2022-11-10T22:05:24.582Z,99397.22
2022-11-10T22:08:29.438Z,99337.66
2022-11-10T22:11:52.734Z,99329.13
2022-11-10T22:15:15.677Z,99402.00
2022-11-10T22:18:38.246Z,99404.41
2022-11-10T22:21:44.486Z,99367.69
2022-11-10T22:24:48.809Z,99416.25
2022-11-10T22:27:53.264Z,99266.78
2022-11-10T22:30:58.065Z,99423.97
2022-11-10T22:34:02.943Z,99416.22
2022-11-10T22:37:07.607Z,99265.97
2022-11-10T22:40:31.083Z,99410.66
2022-11-10T22:43:54.155Z,99408.06
2022-11-10T22:46:58.957Z,99413.63
2022-11-10T22:50:04.090Z,99417.31
2022-11-10T22:53:11.013Z,99422.16
2022-11-10T22:56:16.386Z,99427.72
2022-11-10T22:59:21.314Z,99288.63
2022-11-10T23:02:31.994Z,99424.72
2022-11-10T23:05:37.048Z,99366.84
2022-11-10T23:08:41.364Z,99288.63
2022-11-10T23:11:45.849Z,99287.88
2022-11-10T23:14:50.400Z,99265.56
2022-11-10T23:17:55.088Z,99272.66
2022-11-10T23:21:04.577Z,99381.00
2022-11-10T23:24:08.998Z,99416.22
2022-11-10T23:27:18.292Z,99433.47
2022-11-10T23:30:26.941Z,99420.88
2022-11-10T23:33:42.498Z,99428.25
2022-11-10T23:36:53.575Z,99423.66
2022-11-10T23:39:58.469Z,99266.38
2022-11-10T23:43:02.759Z,99268.94
2022-11-10T23:46:08.177Z,99360.91
2022-11-10T23:49:12.774Z,99263.00
2022-11-10T23:52:17.022Z,99404.16
2022-11-10T23:55:21.370Z,99459.28
2022-11-10T23:58:26.112Z,99460.59
